createdAt,value
2022-09-26T00:01:34.390Z,84.81
2022-09-26T00:04:03.573Z,84.44
2022-09-26T00:06:31.544Z,84.46
2022-09-26T00:08:59.606Z,84.91
2022-09-26T00:11:28.290Z,84.64
2022-09-26T00:13:56.930Z,84.57
2022-09-26T00:16:26.719Z,84.53
2022-09-26T00:18:55.628Z,85.05
2022-09-26T00:21:23.949Z,85.28
2022-09-26T00:23:52.018Z,85.41
2022-09-26T00:26:20.815Z,85.29
2022-09-26T00:28:49.304Z,85.29
2022-09-26T00:31:19.419Z,85.48
2022-09-26T00:33:48.989Z,85.62
2022-09-26T00:36:16.950Z,85.80
2022-09-26T00:38:45.114Z,85.48
2022-09-26T00:41:13.381Z,85.80
2022-09-26T00:43:42.502Z,86.27
2022-09-26T00:46:15.748Z,86.37
2022-09-26T00:48:44.577Z,86.18
2022-09-26T00:51:13.770Z,86.87
2022-09-26T00:53:43.367Z,87.15
2022-09-26T00:56:12.878Z,87.33
2022-09-26T00:58:43.577Z,87.12
2022-09-26T01:01:12.935Z,87.01
2022-09-26T01:03:42.613Z,86.76
2022-09-26T01:06:10.519Z,86.15
2022-09-26T01:08:42.018Z,86.06
2022-09-26T01:11:16.143Z,85.26
2022-09-26T01:13:45.368Z,85.33
2022-09-26T01:16:13.393Z,84.90
2022-09-26T01:18:41.665Z,85.31
2022-09-26T01:21:17.541Z,85.00
2022-09-26T01:24:02.154Z,84.73
2022-09-26T01:26:57.439Z,84.96
2022-09-26T01:29:43.504Z,84.62
2022-09-26T01:32:37.304Z,84.47
2022-09-26T01:35:10.871Z,84.39
2022-09-26T01:37:43.168Z,84.38
2022-09-26T01:40:14.843Z,84.25
2022-09-26T01:42:47.005Z,84.07
2022-09-26T01:45:18.692Z,84.21
2022-09-26T01:47:51.399Z,83.93
2022-09-26T01:50:23.326Z,83.74
2022-09-26T01:52:55.310Z,83.55
2022-09-26T01:55:25.508Z,84.00
2022-09-26T01:57:56.078Z,83.90
2022-09-26T02:00:24.145Z,84.19
2022-09-26T02:02:55.287Z,84.13
2022-09-26T02:05:26.291Z,84.01
2022-09-26T02:07:56.675Z,84.28
2022-09-26T02:10:27.573Z,84.03
2022-09-26T02:12:57.621Z,83.86
2022-09-26T02:15:27.458Z,83.52
2022-09-26T02:17:59.362Z,83.88
2022-09-26T02:20:29.925Z,83.42
2022-09-26T02:22:58.241Z,83.80
2022-09-26T02:25:26.271Z,83.67
2022-09-26T02:27:54.604Z,83.43
2022-09-26T02:30:22.414Z,83.43
2022-09-26T02:32:50.640Z,83.39
2022-09-26T02:35:37.711Z,83.16
2022-09-26T02:38:07.306Z,82.90
2022-09-26T02:40:37.654Z,82.45
2022-09-26T02:43:15.956Z,83.09
2022-09-26T02:45:46.687Z,82.93
2022-09-26T02:48:23.333Z,83.12
2022-09-26T02:51:04.218Z,83.20
2022-09-26T02:53:40.006Z,83.05
2022-09-26T02:56:14.327Z,83.30
2022-09-26T02:58:48.280Z,83.22
2022-09-26T03:01:19.784Z,83.43
2022-09-26T03:03:51.735Z,83.53
2022-09-26T03:06:24.339Z,83.67
2022-09-26T03:08:52.466Z,83.33
2022-09-26T03:11:22.941Z,83.86
2022-09-26T03:13:52.741Z,83.63
2022-09-26T03:16:21.733Z,83.66
2022-09-26T03:18:53.296Z,83.18
2022-09-26T03:21:23.077Z,83.53
2022-09-26T03:23:51.574Z,83.26
2022-09-26T03:26:20.857Z,83.27
2022-09-26T03:28:48.875Z,83.15
2022-09-26T03:31:16.839Z,82.81
2022-09-26T03:33:44.651Z,83.05
2022-09-26T03:36:12.403Z,83.15
2022-09-26T03:38:41.581Z,82.96
2022-09-26T03:41:10.183Z,82.73
2022-09-26T03:43:38.092Z,82.67
2022-09-26T03:46:06.779Z,82.81
2022-09-26T03:48:35.202Z,82.66
2022-09-26T03:51:03.603Z,82.62
2022-09-26T03:53:32.502Z,82.83
2022-09-26T03:56:04.831Z,82.63
2022-09-26T03:58:32.789Z,82.73
2022-09-26T04:01:03.664Z,82.52
2022-09-26T04:03:33.174Z,82.48
2022-09-26T04:06:00.978Z,82.31
2022-09-26T04:08:28.890Z,82.16
2022-09-26T04:11:01.202Z,82.32
2022-09-26T04:16:20.154Z,82.24
2022-09-26T04:18:48.130Z,82.28
2022-09-26T04:21:16.711Z,82.44
2022-09-26T04:23:45.370Z,82.14
2022-09-26T04:26:17.518Z,82.48
2022-09-26T04:28:52.122Z,82.15
2022-09-26T04:31:21.427Z,82.34
2022-09-26T04:33:49.986Z,82.58
2022-09-26T04:36:18.684Z,82.46
2022-09-26T04:38:46.523Z,82.59
2022-09-26T04:41:15.073Z,82.90
2022-09-26T04:43:43.085Z,83.07
2022-09-26T04:46:15.927Z,83.33
2022-09-26T04:48:48.146Z,82.83
2022-09-26T04:51:20.236Z,82.80
2022-09-26T04:53:54.033Z,83.02
2022-09-26T04:56:22.510Z,83.26
2022-09-26T04:58:50.727Z,83.27
2022-09-26T05:01:20.855Z,83.17
2022-09-26T05:03:49.230Z,83.11
2022-09-26T05:06:17.650Z,82.82
2022-09-26T05:08:47.523Z,82.92
2022-09-26T05:11:16.182Z,83.17
2022-09-26T05:13:44.884Z,83.31
2022-09-26T05:16:14.427Z,83.39
2022-09-26T05:18:44.577Z,83.19
2022-09-26T05:21:13.712Z,83.11
2022-09-26T05:24:13.804Z,83.08
2022-09-26T05:26:42.857Z,83.14
2022-09-26T05:29:11.975Z,82.90
2022-09-26T05:31:40.525Z,82.92
2022-09-26T05:34:14.352Z,82.70
2022-09-26T05:36:46.624Z,82.52
2022-09-26T05:39:28.415Z,82.38
2022-09-26T05:41:56.330Z,81.84
2022-09-26T05:44:24.377Z,81.62
2022-09-26T05:46:52.416Z,81.20
2022-09-26T05:49:21.746Z,81.46
2022-09-26T05:51:49.593Z,81.19
2022-09-26T05:54:17.525Z,80.94
2022-09-26T05:56:45.328Z,80.50
2022-09-26T05:59:13.188Z,79.36
2022-09-26T06:01:40.987Z,78.91
2022-09-26T06:04:08.848Z,78.21
2022-09-26T06:06:38.112Z,78.29
2022-09-26T06:09:07.394Z,78.16
2022-09-26T06:11:35.241Z,78.06
2022-09-26T06:14:03.071Z,77.57
2022-09-26T06:16:30.937Z,76.98
2022-09-26T06:18:58.964Z,76.20
2022-09-26T06:21:27.406Z,76.88
2022-09-26T06:23:56.533Z,76.04
2022-09-26T06:26:26.755Z,75.64
2022-09-26T06:28:55.877Z,75.00
2022-09-26T06:31:25.327Z,75.58
2022-09-26T06:33:54.254Z,74.83
2022-09-26T06:36:23.138Z,74.02
2022-09-26T06:38:51.254Z,73.36
2022-09-26T06:41:20.493Z,72.98
2022-09-26T06:43:49.040Z,71.49
2022-09-26T06:46:24.880Z,71.17
2022-09-26T06:48:52.825Z,70.90
2022-09-26T06:51:22.504Z,71.00
2022-09-26T06:53:50.295Z,70.78
2022-09-26T06:56:18.142Z,71.06
2022-09-26T06:58:49.777Z,72.04
2022-09-26T07:01:18.380Z,72.15
2022-09-26T07:03:46.316Z,71.87
2022-09-26T07:06:14.399Z,71.70
2022-09-26T07:11:42.145Z,71.69
2022-09-26T07:14:19.734Z,71.43
2022-09-26T07:16:49.186Z,71.35
2022-09-26T07:19:17.211Z,71.14
2022-09-26T07:21:44.984Z,71.34
2022-09-26T07:24:14.165Z,71.55
2022-09-26T07:26:42.613Z,70.93
2022-09-26T07:29:10.711Z,71.02
2022-09-26T07:31:40.014Z,70.81
2022-09-26T07:34:08.568Z,71.10
2022-09-26T07:36:37.190Z,71.09
2022-09-26T07:39:05.271Z,71.28
2022-09-26T07:41:33.044Z,71.32
2022-09-26T07:47:10.159Z,70.77
2022-09-26T07:49:55.522Z,70.71
2022-09-26T07:52:23.595Z,70.71
2022-09-26T07:54:51.771Z,70.38
2022-09-26T07:57:19.592Z,71.20
2022-09-26T07:59:49.711Z,70.65
2022-09-26T08:02:25.975Z,70.42
2022-09-26T08:05:00.239Z,70.51
2022-09-26T08:07:29.585Z,70.76
2022-09-26T08:09:58.669Z,70.25
2022-09-26T08:12:27.364Z,70.29
2022-09-26T08:14:55.139Z,69.76
2022-09-26T08:17:22.925Z,69.95
2022-09-26T08:19:52.194Z,70.99
2022-09-26T08:22:20.142Z,70.81
2022-09-26T08:24:50.820Z,70.70
2022-09-26T08:27:19.091Z,72.02
2022-09-26T08:29:49.355Z,72.56
2022-09-26T08:32:17.369Z,72.76
2022-09-26T08:34:45.714Z,73.04
2022-09-26T08:37:15.968Z,72.74
2022-09-26T08:39:43.948Z,72.83
2022-09-26T08:42:28.712Z,74.68
2022-09-26T08:45:25.416Z,74.61
2022-09-26T08:47:59.930Z,75.31
2022-09-26T08:50:32.574Z,76.57
2022-09-26T08:53:03.518Z,76.59
2022-09-26T08:55:34.031Z,77.88
2022-09-26T08:58:04.533Z,78.63
2022-09-26T09:00:34.295Z,79.15
2022-09-26T09:03:08.394Z,80.42
2022-09-26T09:05:39.202Z,80.37
2022-09-26T09:08:13.545Z,80.39
2022-09-26T09:10:45.973Z,81.09
2022-09-26T09:13:30.781Z,81.60
2022-09-26T09:16:08.312Z,81.87
2022-09-26T09:18:43.106Z,83.06
2022-09-26T09:21:23.387Z,83.94
2022-09-26T09:23:59.241Z,84.64
2022-09-26T09:29:41.177Z,85.97
2022-09-26T09:32:10.819Z,86.83
2022-09-26T09:34:40.838Z,87.62
2022-09-26T09:37:13.058Z,88.04
2022-09-26T09:39:44.168Z,88.02
2022-09-26T09:42:14.015Z,88.25
2022-09-26T09:44:47.031Z,88.53
2022-09-26T09:47:16.695Z,88.52
2022-09-26T09:49:45.148Z,88.11
2022-09-26T09:52:28.509Z,87.80
2022-09-26T09:55:03.797Z,88.25
2022-09-26T09:57:42.305Z,88.27
2022-09-26T10:00:12.998Z,88.08
2022-09-26T10:02:46.989Z,88.90
2022-09-26T10:05:24.289Z,88.28
2022-09-26T10:07:58.006Z,87.26
2022-09-26T10:10:29.238Z,86.95
2022-09-26T10:12:57.253Z,86.77
2022-09-26T10:15:27.164Z,86.40
2022-09-26T10:18:22.791Z,86.74
2022-09-26T10:20:53.847Z,85.05
2022-09-26T10:23:27.081Z,84.79
2022-09-26T10:26:02.300Z,84.11
2022-09-26T10:28:31.690Z,83.71
2022-09-26T10:31:08.248Z,83.62
2022-09-26T10:33:37.594Z,83.83
2022-09-26T10:36:10.098Z,85.07
2022-09-26T10:39:10.175Z,83.78
2022-09-26T10:41:42.595Z,84.67
2022-09-26T10:44:22.605Z,85.53
2022-09-26T10:46:52.348Z,84.67
2022-09-26T10:49:23.608Z,84.93
2022-09-26T10:51:55.370Z,85.26
2022-09-26T10:54:24.603Z,85.45
2022-09-26T10:56:59.255Z,85.35
2022-09-26T10:59:31.398Z,84.19
2022-09-26T11:02:00.264Z,84.19
2022-09-26T11:04:46.661Z,83.36
2022-09-26T11:07:21.423Z,82.72
2022-09-26T11:09:49.387Z,81.27
2022-09-26T11:12:26.215Z,79.31
2022-09-26T11:14:56.806Z,78.44
2022-09-26T11:17:44.802Z,76.52
2022-09-26T11:20:15.422Z,76.70
2022-09-26T11:22:45.388Z,76.70
2022-09-26T11:25:17.733Z,75.26
2022-09-26T11:27:49.588Z,75.67
2022-09-26T11:30:20.662Z,75.36
2022-09-26T11:32:49.610Z,73.49
2022-09-26T11:35:18.442Z,73.01
2022-09-26T11:38:11.068Z,72.29
2022-09-26T11:40:45.680Z,73.42
2022-09-26T11:43:24.465Z,72.06
2022-09-26T11:46:04.104Z,71.46
2022-09-26T11:48:42.962Z,70.54
2022-09-26T11:51:19.758Z,69.25
2022-09-26T11:53:57.278Z,68.51
2022-09-26T11:56:33.984Z,63.76
2022-09-26T11:59:07.322Z,61.00
2022-09-26T12:01:40.836Z,61.82
2022-09-26T12:04:26.572Z,62.49
2022-09-26T12:06:56.921Z,62.87
2022-09-26T12:09:36.665Z,61.03
2022-09-26T12:12:09.484Z,60.82
2022-09-26T12:14:44.485Z,62.17
2022-09-26T12:17:17.552Z,62.82
2022-09-26T12:19:54.042Z,63.43
2022-09-26T12:22:30.061Z,65.79
2022-09-26T12:25:20.277Z,66.62
2022-09-26T12:27:51.354Z,67.88
2022-09-26T12:30:22.580Z,68.55
2022-09-26T12:33:02.563Z,68.28
2022-09-26T12:35:36.514Z,69.00
2022-09-26T12:38:24.379Z,68.72
2022-09-26T12:41:02.253Z,69.08
2022-09-26T12:43:47.934Z,70.87
2022-09-26T12:46:22.092Z,73.20
2022-09-26T12:49:01.864Z,74.13
2022-09-26T12:51:37.787Z,76.13
2022-09-26T12:54:17.794Z,77.15
2022-09-26T12:56:51.181Z,78.11
2022-09-26T12:59:35.362Z,76.24
2022-09-26T13:02:25.117Z,75.85
2022-09-26T13:05:02.022Z,75.27
2022-09-26T13:07:43.099Z,75.37
2022-09-26T13:10:23.981Z,74.41
2022-09-26T13:13:10.074Z,73.52
2022-09-26T13:15:41.498Z,73.40
2022-09-26T13:18:15.202Z,73.71
2022-09-26T13:20:44.769Z,73.16
2022-09-26T13:23:20.349Z,74.46
2022-09-26T13:25:50.858Z,74.01
2022-09-26T13:28:21.355Z,75.00
2022-09-26T13:30:50.608Z,74.21
2022-09-26T13:33:23.009Z,74.12
2022-09-26T13:35:53.911Z,74.48
2022-09-26T13:38:39.160Z,73.49
2022-09-26T13:41:26.237Z,73.13
2022-09-26T13:44:03.377Z,72.31
2022-09-26T13:46:36.339Z,71.63
2022-09-26T13:49:14.397Z,72.49
2022-09-26T13:51:49.611Z,72.83
2022-09-26T13:54:21.409Z,73.36
2022-09-26T13:56:49.776Z,74.94
2022-09-26T13:59:25.920Z,75.01
2022-09-26T14:02:12.290Z,75.48
2022-09-26T14:04:41.664Z,76.05
2022-09-26T14:07:34.279Z,76.31
2022-09-26T14:10:13.399Z,77.42
2022-09-26T14:12:55.682Z,77.79
2022-09-26T14:15:25.122Z,79.00
2022-09-26T14:18:08.167Z,80.01
2022-09-26T14:20:47.775Z,81.01
2022-09-26T14:23:31.076Z,81.43
2022-09-26T14:26:05.395Z,81.44
2022-09-26T14:28:34.874Z,82.08
2022-09-26T14:31:14.194Z,82.46
2022-09-26T14:33:44.071Z,83.06
2022-09-26T14:36:24.401Z,82.69
2022-09-26T14:38:53.575Z,82.69
2022-09-26T14:41:22.335Z,83.74
2022-09-26T14:43:52.094Z,83.86
2022-09-26T14:46:23.241Z,84.58
2022-09-26T14:48:57.802Z,84.84
2022-09-26T14:51:28.656Z,85.10
2022-09-26T14:54:00.303Z,85.58
2022-09-26T14:56:37.924Z,85.57
2022-09-26T14:59:21.403Z,85.72
2022-09-26T15:01:49.407Z,86.22
2022-09-26T15:04:19.337Z,85.43
2022-09-26T15:06:49.782Z,85.86
2022-09-26T15:09:20.936Z,87.23
2022-09-26T15:11:50.038Z,87.25
2022-09-26T15:14:22.863Z,86.95
2022-09-26T15:16:52.450Z,87.60
2022-09-26T15:19:21.258Z,87.74
2022-09-26T15:21:52.388Z,88.23
2022-09-26T15:24:24.153Z,88.48
2022-09-26T15:26:52.297Z,88.21
2022-09-26T15:29:21.866Z,88.07
2022-09-26T15:31:49.794Z,88.33
2022-09-26T15:34:19.500Z,88.57
2022-09-26T15:36:49.349Z,89.06
2022-09-26T15:39:35.663Z,88.65
2022-09-26T15:42:24.968Z,88.51
2022-09-26T15:44:55.264Z,88.46
2022-09-26T15:47:27.503Z,88.56
2022-09-26T15:50:03.297Z,88.18
2022-09-26T15:52:35.277Z,88.53
2022-09-26T15:55:06.121Z,89.09
2022-09-26T15:57:34.785Z,89.15
2022-09-26T16:00:03.284Z,89.92
2022-09-26T16:02:32.483Z,90.14
2022-09-26T16:05:00.918Z,90.50
2022-09-26T16:07:30.658Z,90.71
2022-09-26T16:09:59.387Z,90.32
2022-09-26T16:12:30.160Z,90.83
2022-09-26T16:15:00.274Z,91.27
2022-09-26T16:17:32.324Z,91.54
2022-09-26T16:20:05.594Z,91.22
2022-09-26T16:22:40.305Z,91.63
2022-09-26T16:25:27.657Z,91.90
2022-09-26T16:28:01.494Z,92.03
2022-09-26T16:30:40.991Z,92.44
2022-09-26T16:33:26.835Z,92.35
2022-09-26T16:35:55.078Z,92.62
2022-09-26T16:38:24.838Z,92.37
2022-09-26T16:40:53.595Z,92.88
2022-09-26T16:43:26.857Z,92.61
2022-09-26T16:46:00.526Z,92.92
2022-09-26T16:48:34.931Z,93.11
2022-09-26T16:51:14.493Z,93.00
2022-09-26T16:53:44.203Z,93.04
2022-09-26T16:56:13.128Z,93.30
2022-09-26T16:58:45.336Z,93.24
2022-09-26T17:01:30.744Z,93.44
2022-09-26T17:03:59.151Z,93.36
2022-09-26T17:06:27.648Z,93.52
2022-09-26T17:08:57.453Z,93.72
2022-09-26T17:11:26.123Z,93.60
2022-09-26T17:13:55.376Z,93.93
2022-09-26T17:16:23.379Z,94.09
2022-09-26T17:18:51.440Z,94.11
2022-09-26T17:21:19.223Z,94.18
2022-09-26T17:23:48.811Z,93.92
2022-09-26T17:26:19.478Z,94.07
2022-09-26T17:28:47.832Z,94.21
2022-09-26T17:31:19.283Z,94.13
2022-09-26T17:33:48.330Z,94.12
2022-09-26T17:36:20.602Z,94.20
2022-09-26T17:38:48.620Z,94.39
2022-09-26T17:41:16.424Z,94.28
2022-09-26T17:43:45.043Z,94.48
2022-09-26T17:46:15.342Z,94.41
2022-09-26T17:48:45.564Z,94.12
2022-09-26T17:51:14.387Z,94.45
2022-09-26T17:53:49.529Z,94.26
2022-09-26T17:56:18.398Z,94.11
2022-09-26T17:58:47.078Z,94.25
2022-09-26T18:01:20.988Z,94.26
2022-09-26T18:03:51.477Z,94.14
2022-09-26T18:06:20.994Z,94.39
2022-09-26T18:08:49.256Z,94.54
2022-09-26T18:11:18.425Z,94.46
2022-09-26T18:13:48.639Z,94.46
2022-09-26T18:16:17.910Z,94.50
2022-09-26T18:18:45.820Z,94.42
2022-09-26T18:21:16.100Z,94.33
2022-09-26T18:23:47.323Z,94.51
2022-09-26T18:26:21.938Z,94.68
2022-09-26T18:28:50.592Z,95.03
2022-09-26T18:31:19.856Z,94.65
2022-09-26T18:33:47.736Z,94.71
2022-09-26T18:36:16.929Z,94.68
2022-09-26T18:38:44.707Z,94.84
2022-09-26T18:41:15.646Z,94.91
2022-09-26T18:43:43.493Z,94.79
2022-09-26T18:46:13.232Z,95.05
2022-09-26T18:48:41.646Z,94.85
2022-09-26T18:51:10.924Z,95.05
2022-09-26T18:53:41.053Z,95.28
2022-09-26T18:56:26.685Z,95.17
2022-09-26T18:58:54.659Z,95.44
2022-09-26T19:01:26.413Z,95.52
2022-09-26T19:03:56.109Z,95.60
2022-09-26T19:06:25.022Z,95.63
2022-09-26T19:08:57.974Z,95.71
2022-09-26T19:11:26.557Z,95.88
2022-09-26T19:13:55.572Z,95.56
2022-09-26T19:16:24.072Z,96.16
2022-09-26T19:18:52.119Z,96.16
2022-09-26T19:21:25.090Z,96.24
2022-09-26T19:23:54.733Z,96.25
2022-09-26T19:26:26.079Z,96.41
2022-09-26T19:28:54.966Z,96.61
2022-09-26T19:31:22.947Z,96.64
2022-09-26T19:33:51.071Z,96.74
2022-09-26T19:36:20.150Z,96.84
2022-09-26T19:38:47.985Z,96.91
2022-09-26T19:41:17.370Z,96.79
2022-09-26T19:43:45.155Z,96.73
2022-09-26T19:46:15.321Z,96.88
2022-09-26T19:48:43.399Z,96.84
2022-09-26T19:51:12.299Z,96.83
2022-09-26T19:53:40.284Z,96.87
2022-09-26T19:56:08.158Z,96.77
2022-09-26T19:58:37.431Z,97.27
2022-09-26T20:01:14.099Z,97.11
2022-09-26T20:03:43.658Z,97.34
2022-09-26T20:06:15.725Z,97.24
2022-09-26T20:08:43.756Z,97.28
2022-09-26T20:11:11.819Z,97.47
2022-09-26T20:13:58.854Z,97.39
2022-09-26T20:16:27.572Z,97.46
2022-09-26T20:18:56.245Z,97.57
2022-09-26T20:21:26.323Z,97.75
2022-09-26T20:23:54.398Z,97.84
2022-09-26T20:26:22.243Z,97.72
2022-09-26T20:28:51.569Z,97.89
2022-09-26T20:31:20.068Z,97.74
2022-09-26T20:33:48.535Z,97.79
2022-09-26T20:36:16.736Z,97.66
2022-09-26T20:38:48.047Z,97.56
2022-09-26T20:41:20.400Z,97.50
2022-09-26T20:43:49.880Z,97.69
2022-09-26T20:46:20.435Z,97.52
2022-09-26T20:48:49.537Z,97.71
2022-09-26T20:51:20.205Z,97.78
2022-09-26T20:53:48.127Z,97.84
2022-09-26T20:56:20.720Z,97.77
2022-09-26T20:58:48.813Z,97.42
2022-09-26T21:01:17.352Z,97.63
2022-09-26T21:03:48.065Z,97.81
2022-09-26T21:06:17.005Z,97.66
2022-09-26T21:08:45.179Z,97.66
2022-09-26T21:11:15.041Z,97.61
2022-09-26T21:13:43.136Z,97.60
2022-09-26T21:16:12.873Z,97.72
2022-09-26T21:18:40.959Z,97.78
2022-09-26T21:21:21.606Z,98.02
2022-09-26T21:23:49.913Z,97.75
2022-09-26T21:26:18.774Z,97.77
2022-09-26T21:28:46.581Z,97.70
2022-09-26T21:31:19.758Z,97.67
2022-09-26T21:33:47.946Z,97.80
2022-09-26T21:36:17.162Z,97.78
2022-09-26T21:38:45.120Z,97.60
2022-09-26T21:41:13.057Z,97.69
2022-09-26T21:43:42.772Z,97.57
2022-09-26T21:46:10.696Z,97.81
2022-09-26T21:48:38.995Z,97.61
2022-09-26T21:51:08.072Z,97.81
2022-09-26T21:53:41.603Z,97.60
2022-09-26T21:56:11.614Z,97.66
2022-09-26T21:58:40.604Z,97.65
2022-09-26T22:01:08.664Z,97.90
2022-09-26T22:03:37.178Z,97.76
2022-09-26T22:06:07.530Z,98.04
2022-09-26T22:08:35.930Z,98.05
2022-09-26T22:11:05.162Z,98.18
2022-09-26T22:13:33.965Z,98.22
2022-09-26T22:16:05.072Z,98.33
2022-09-26T22:18:33.986Z,98.46
2022-09-26T22:21:04.683Z,98.30
2022-09-26T22:23:33.397Z,98.45
2022-09-26T22:26:01.569Z,98.29
2022-09-26T22:28:31.119Z,98.34
2022-09-26T22:31:01.715Z,98.50
2022-09-26T22:33:29.726Z,98.37
2022-09-26T22:35:57.698Z,98.39
2022-09-26T22:38:25.687Z,98.43
2022-09-26T22:40:57.003Z,98.69
2022-09-26T22:43:25.035Z,98.67
2022-09-26T22:45:54.507Z,98.34
2022-09-26T22:48:22.375Z,98.31
2022-09-26T22:50:50.158Z,98.05
2022-09-26T22:53:18.047Z,98.00
2022-09-26T22:55:52.160Z,97.97
2022-09-26T22:58:20.152Z,98.01
2022-09-26T23:00:48.450Z,98.27
2022-09-26T23:03:17.605Z,98.30
2022-09-26T23:05:47.722Z,98.20
2022-09-26T23:08:15.500Z,98.12
2022-09-26T23:10:48.894Z,98.22
2022-09-26T23:13:16.846Z,98.18
2022-09-26T23:15:44.939Z,97.98
2022-09-26T23:18:13.235Z,98.10
2022-09-26T23:20:43.161Z,97.86
2022-09-26T23:23:11.415Z,97.88
2022-09-26T23:25:45.601Z,97.89
2022-09-26T23:28:13.524Z,97.94
2022-09-26T23:30:41.362Z,97.91
2022-09-26T23:33:09.262Z,97.87
2022-09-26T23:35:37.390Z,98.06
2022-09-26T23:38:06.629Z,98.06
2022-09-26T23:40:37.259Z,98.06
2022-09-26T23:43:05.177Z,97.90
2022-09-26T23:45:33.104Z,97.97
2022-09-26T23:48:01.033Z,97.94
2022-09-26T23:50:28.847Z,98.01
2022-09-26T23:52:57.890Z,98.08
2022-09-26T23:55:27.072Z,98.04
2022-09-26T23:57:56.824Z,98.19
